createdAt,value
2018-12-15T00:02:54.291Z,8.04
2018-12-15T00:08:49.344Z,9.65
2018-12-15T00:14:44.305Z,9.88
2018-12-15T00:20:39.309Z,9.84
2018-12-15T00:26:34.316Z,8.56
2018-12-15T00:32:29.362Z,7.24
2018-12-15T00:38:24.341Z,4.56
2018-12-15T00:44:19.318Z,5.1
2018-12-15T00:50:14.333Z,5.01
2018-12-15T00:56:09.339Z,5.35
2018-12-15T01:02:04.319Z,5.62
2018-12-15T01:07:59.344Z,5.81
2018-12-15T01:13:54.346Z,5.37
2018-12-15T01:19:49.336Z,6.28
2018-12-15T01:25:44.339Z,5.95
2018-12-15T01:31:39.395Z,6.53
2018-12-15T01:37:34.348Z,6.23
2018-12-15T01:43:29.393Z,5.77
2018-12-15T01:49:24.423Z,5.54
2018-12-15T01:55:19.350Z,5.47
2018-12-15T02:01:14.361Z,4.5
2018-12-15T02:07:09.361Z,5.68
2018-12-15T02:13:04.377Z,5.16
2018-12-15T02:18:59.375Z,2.2
2018-12-15T02:24:54.386Z,4.28
2018-12-15T02:30:49.400Z,4.73
2018-12-15T02:36:44.383Z,4.7
2018-12-15T02:42:39.397Z,4.09
2018-12-15T02:48:34.389Z,4.11
2018-12-15T02:54:29.375Z,4.4
2018-12-15T03:00:24.380Z,3.85
2018-12-15T03:06:19.394Z,3.13
2018-12-15T03:12:14.388Z,3.32
2018-12-15T03:18:09.426Z,4.39
2018-12-15T03:24:04.435Z,3.46
2018-12-15T03:29:59.386Z,3.67
2018-12-15T03:35:54.405Z,3.52
2018-12-15T03:41:49.419Z,3.16
2018-12-15T03:47:44.416Z,3.11
2018-12-15T03:53:39.470Z,3.48
2018-12-15T03:59:34.424Z,3.63
2018-12-15T04:05:29.423Z,3.04
2018-12-15T04:11:24.436Z,2.17
2018-12-15T04:17:19.454Z,2.88
2018-12-15T04:23:14.426Z,3.15
2018-12-15T04:29:09.403Z,2.2
2018-12-15T04:35:04.435Z,2.65
2018-12-15T04:40:59.445Z,3.29
2018-12-15T04:46:54.445Z,3.23
2018-12-15T04:52:49.466Z,3.32
2018-12-15T04:58:44.484Z,4.78
2018-12-15T05:04:39.509Z,3.7
2018-12-15T05:10:34.462Z,2.86
2018-12-15T05:16:29.461Z,3.16
2018-12-15T05:22:24.447Z,3.12
2018-12-15T05:28:19.491Z,3.15
2018-12-15T05:34:14.466Z,3.07
2018-12-15T05:40:09.478Z,2.7
2018-12-15T05:46:04.514Z,3.17
2018-12-15T05:51:59.486Z,3.64
2018-12-15T05:57:54.491Z,3.14
2018-12-15T06:03:49.492Z,1.8
2018-12-15T06:09:44.465Z,3.1
2018-12-15T06:15:39.467Z,3.1
2018-12-15T06:21:34.487Z,3.09
2018-12-15T06:27:29.473Z,2.72
2018-12-15T06:33:24.490Z,3.04
2018-12-15T06:39:19.493Z,2.41
2018-12-15T06:45:14.491Z,3.3
2018-12-15T06:51:09.482Z,2.92
2018-12-15T06:57:04.501Z,3.12
2018-12-15T07:02:59.495Z,3.41
2018-12-15T07:08:54.526Z,3.12
2018-12-15T07:14:49.508Z,2.6
2018-12-15T07:20:44.500Z,2.47
2018-12-15T07:26:39.512Z,2.73
2018-12-15T07:32:34.523Z,2.91
2018-12-15T07:38:29.521Z,3
2018-12-15T07:44:24.532Z,2.1
2018-12-15T07:50:19.532Z,2.35
2018-12-15T07:56:14.556Z,1.82
2018-12-15T08:02:09.527Z,2.29
2018-12-15T08:08:04.529Z,1.67
2018-12-15T08:13:59.520Z,2.11
2018-12-15T08:19:54.551Z,2.2
2018-12-15T08:25:49.527Z,2.46
2018-12-15T08:31:44.530Z,1.86
2018-12-15T08:37:39.589Z,1.53
2018-12-15T08:43:34.565Z,1.77
2018-12-15T08:49:29.535Z,3.88
2018-12-15T08:55:24.552Z,2.81
2018-12-15T09:01:19.585Z,2.59
2018-12-15T09:07:14.611Z,3.02
2018-12-15T09:13:09.634Z,2.48
2018-12-15T09:19:10.970Z,2.99
2018-12-15T09:24:59.606Z,2.92
2018-12-15T09:30:54.578Z,3.71
2018-12-15T09:36:49.571Z,3.87
2018-12-15T09:42:44.582Z,6.48
2018-12-15T09:48:39.597Z,21.19
2018-12-15T09:54:34.612Z,1.81
2018-12-15T10:00:29.607Z,5.15
2018-12-15T10:06:24.586Z,14.88
2018-12-15T10:12:19.588Z,5.53
2018-12-15T10:18:14.591Z,6.43
2018-12-15T10:24:09.602Z,5.07
2018-12-15T10:30:04.616Z,2.87
2018-12-15T10:35:59.609Z,3.04
2018-12-15T10:41:54.613Z,2.89
2018-12-15T10:47:49.681Z,4.07
2018-12-15T10:53:44.642Z,3.69
2018-12-15T10:59:39.606Z,9.74
2018-12-15T11:05:34.612Z,3.66
2018-12-15T11:11:29.604Z,4.05
2018-12-15T11:17:24.611Z,3.96
2018-12-15T11:23:19.643Z,2.94
2018-12-15T11:29:14.629Z,6.13
2018-12-15T11:35:09.647Z,5.08
2018-12-15T11:41:04.630Z,4.02
2018-12-15T11:46:59.690Z,6.75
2018-12-15T11:52:54.690Z,3.49
2018-12-15T11:58:49.642Z,6.55
2018-12-15T12:04:44.633Z,3.19
2018-12-15T12:10:39.645Z,3.62
2018-12-15T12:16:34.651Z,3.84
2018-12-15T12:22:29.754Z,3.25
2018-12-15T12:28:24.674Z,3.59
2018-12-15T12:34:19.710Z,3.58
2018-12-15T12:40:14.687Z,2.93
2018-12-15T12:46:09.692Z,3.5
2018-12-15T12:52:04.674Z,3.54
2018-12-15T12:57:59.671Z,3.17
2018-12-15T13:03:54.682Z,3.1
2018-12-15T13:09:49.684Z,3.3
2018-12-15T13:15:44.700Z,3.08
2018-12-15T13:21:39.698Z,3.7
2018-12-15T13:27:34.716Z,3.46
2018-12-15T13:33:29.705Z,4.27
2018-12-15T13:39:24.700Z,5.41
2018-12-15T13:45:19.722Z,3.99
2018-12-15T13:51:14.714Z,3.76
2018-12-15T13:57:09.715Z,4.37
2018-12-15T14:03:04.738Z,4.86
2018-12-15T14:08:59.704Z,4.77
2018-12-15T14:14:54.710Z,4.92
2018-12-15T14:20:49.723Z,5.79
2018-12-15T14:26:44.740Z,3.86
2018-12-15T14:32:39.738Z,5.67
2018-12-15T14:38:34.767Z,5.81
2018-12-15T14:44:29.751Z,5.65
2018-12-15T14:50:24.800Z,5.02
2018-12-15T14:56:19.741Z,6.35
2018-12-15T15:02:14.749Z,8.15
2018-12-15T15:08:09.816Z,13.43
2018-12-15T15:14:04.761Z,8.4
2018-12-15T15:19:59.745Z,7.75
2018-12-15T15:25:54.751Z,7.01
2018-12-15T15:31:49.784Z,8.75
2018-12-15T15:37:44.760Z,10.28
2018-12-15T15:43:39.774Z,10.67
2018-12-15T15:49:34.770Z,14.64
2018-12-15T15:55:29.765Z,14.05
2018-12-15T16:01:24.773Z,22.2
2018-12-15T16:07:19.851Z,16.26
2018-12-15T16:13:14.822Z,11.34
2018-12-15T16:19:09.803Z,17.52
2018-12-15T16:25:04.814Z,16.08
2018-12-15T16:30:59.791Z,17.23
2018-12-15T16:36:54.833Z,33.78
2018-12-15T16:42:49.850Z,14.9
2018-12-15T16:48:44.798Z,18.45
2018-12-15T16:54:39.902Z,6.87
2018-12-15T17:06:15.935Z,7.79
2018-12-15T17:12:10.944Z,9.67
2018-12-15T17:18:05.909Z,25.71
2018-12-15T17:24:00.942Z,7.58
2018-12-15T17:29:55.927Z,4.7
2018-12-15T17:35:50.929Z,11.85
2018-12-15T17:41:45.943Z,7.37
2018-12-15T17:47:40.991Z,9.37
2018-12-15T17:53:35.946Z,9.16
2018-12-15T17:59:31.033Z,7.4
2018-12-15T18:05:25.942Z,6.69
2018-12-15T18:11:20.943Z,8.29
2018-12-15T18:17:15.975Z,6.79
2018-12-15T18:23:10.971Z,10.82
2018-12-15T18:29:05.963Z,8.1
2018-12-15T18:35:00.963Z,7.72
2018-12-15T18:40:55.988Z,6.26
2018-12-15T18:46:50.961Z,6.68
2018-12-15T18:52:46.005Z,5.46
2018-12-15T18:58:40.955Z,7.52
2018-12-15T19:04:35.984Z,6.56
2018-12-15T19:10:30.987Z,15.99
2018-12-15T19:16:25.995Z,9.09
2018-12-15T19:22:21.006Z,5.72
2018-12-15T19:28:15.976Z,10.58
2018-12-15T19:34:17.306Z,14.88
2018-12-15T19:40:06.041Z,8.48
2018-12-15T19:46:00.977Z,8.1
2018-12-15T19:51:56.057Z,6.91
2018-12-15T19:57:50.985Z,16.56
2018-12-15T20:03:46.009Z,9.63
2018-12-15T20:09:41.014Z,8.33
2018-12-15T20:15:36.086Z,7.31
2018-12-15T20:21:35.911Z,7.79
2018-12-15T20:27:26.037Z,9.14
2018-12-15T20:33:21.019Z,11.65
2018-12-15T20:39:16.038Z,11.27
2018-12-15T20:45:11.045Z,8
2018-12-15T20:51:06.075Z,9.19
2018-12-15T20:57:01.061Z,14.19
2018-12-15T21:02:56.121Z,13.12
2018-12-15T21:08:51.018Z,11.74
2018-12-15T21:14:46.014Z,6.28
2018-12-15T21:20:41.059Z,9.64
2018-12-15T21:26:36.038Z,4.73
2018-12-15T21:32:31.088Z,8.36
2018-12-15T21:38:26.035Z,7.16
2018-12-15T21:44:21.053Z,3.53
2018-12-15T21:50:16.120Z,9.82
2018-12-15T21:56:11.146Z,11.59
2018-12-15T22:02:06.077Z,18.94
2018-12-15T22:08:01.066Z,10.92
2018-12-15T22:13:56.074Z,6.38
2018-12-15T22:19:51.051Z,5.85
2018-12-15T22:25:46.065Z,5.81
2018-12-15T22:31:41.062Z,4.08
2018-12-15T22:37:36.057Z,4.25
2018-12-15T22:43:31.073Z,5.69
2018-12-15T22:49:26.095Z,8.03
2018-12-15T22:55:21.064Z,7.52
2018-12-15T23:01:16.110Z,5.86
2018-12-15T23:07:11.069Z,7.12
2018-12-15T23:13:07.278Z,6.74
2018-12-15T23:19:01.093Z,12.18
2018-12-15T23:24:56.065Z,10.4
2018-12-15T23:30:51.065Z,9.24
2018-12-15T23:36:46.101Z,4.64
2018-12-15T23:42:41.067Z,8.92
2018-12-15T23:48:36.099Z,6.29
2018-12-15T23:54:31.086Z,6.27
